createdAt,value
2022-08-22T00:02:24.438Z,5.85
2022-08-22T00:02:42.589Z,5.65
2022-08-22T00:03:07.176Z,6.93
2022-08-22T00:06:07.224Z,5.20
2022-08-22T00:09:35.689Z,6.15
2022-08-22T00:12:49.591Z,5.18
2022-08-22T00:16:16.281Z,5.43
2022-08-22T00:19:18.464Z,5.80
2022-08-22T00:22:39.195Z,6.18
2022-08-22T00:26:03.143Z,6.18
2022-08-22T00:29:09.247Z,5.43
2022-08-22T00:32:29.734Z,5.55
2022-08-22T00:35:42.910Z,6.32
2022-08-22T00:39:06.626Z,5.18
2022-08-22T00:42:32.157Z,5.82
2022-08-22T00:45:49.288Z,6.68
2022-08-22T00:48:58.219Z,5.80
2022-08-22T00:52:12.759Z,6.03
2022-08-22T00:55:53.741Z,5.20
2022-08-22T00:59:23.202Z,5.03
2022-08-22T01:02:53.445Z,5.32
2022-08-22T01:06:16.486Z,4.93
2022-08-22T01:10:04.198Z,4.53
2022-08-22T01:13:06.218Z,4.65
2022-08-22T01:16:16.926Z,4.93
2022-08-22T01:19:37.730Z,4.25
2022-08-22T01:22:54.825Z,4.75
2022-08-22T01:26:25.705Z,5.15
2022-08-22T01:29:36.259Z,5.38
2022-08-22T01:32:42.937Z,5.15
2022-08-22T01:36:21.518Z,4.35
2022-08-22T01:39:47.792Z,5.05
2022-08-22T01:43:09.205Z,4.20
2022-08-22T01:46:43.525Z,4.15
2022-08-22T01:49:56.205Z,4.50
2022-08-22T01:53:26.099Z,4.68
2022-08-22T01:56:42.947Z,5.20
2022-08-22T01:59:49.574Z,4.53
2022-08-22T02:03:02.238Z,5.07
2022-08-22T02:06:14.634Z,4.55
2022-08-22T02:09:32.718Z,4.60
2022-08-22T02:13:02.635Z,4.80
2022-08-22T02:16:18.876Z,4.45
2022-08-22T02:19:34.185Z,4.72
2022-08-22T02:22:58.071Z,5.10
2022-08-22T02:26:02.908Z,5.57
2022-08-22T02:29:11.539Z,4.80
2022-08-22T02:32:28.004Z,5.03
2022-08-22T02:35:42.494Z,5.45
2022-08-22T02:39:32.342Z,5.95
2022-08-22T02:42:50.321Z,5.32
2022-08-22T02:46:12.327Z,4.63
2022-08-22T02:49:23.255Z,5.63
2022-08-22T02:52:35.376Z,5.05
2022-08-22T02:56:22.451Z,5.10
2022-08-22T02:59:27.457Z,7.50
2022-08-22T03:02:42.252Z,5.00
2022-08-22T03:05:44.501Z,7.35
2022-08-22T03:09:14.926Z,10.48
2022-08-22T03:12:39.412Z,12.82
2022-08-22T03:15:59.640Z,12.77
2022-08-22T03:19:18.746Z,11.60
2022-08-22T03:22:24.052Z,8.02
2022-08-22T03:25:42.024Z,7.10
2022-08-22T03:28:59.956Z,5.67
2022-08-22T03:32:15.952Z,4.45
2022-08-22T03:35:54.039Z,5.28
2022-08-22T03:39:17.124Z,4.90
2022-08-22T03:42:29.102Z,4.15
2022-08-22T03:45:44.086Z,4.80
2022-08-22T03:48:57.132Z,4.45
2022-08-22T03:53:03.537Z,4.47
2022-08-22T03:56:24.327Z,4.65
2022-08-22T04:00:04.205Z,4.63
2022-08-22T04:03:55.248Z,4.78
2022-08-22T04:10:51.837Z,4.32
2022-08-22T04:13:56.709Z,6.10
2022-08-22T04:17:04.581Z,6.40
2022-08-22T04:20:38.645Z,7.05
2022-08-22T04:24:02.805Z,6.68
2022-08-22T04:27:15.241Z,5.57
2022-08-22T04:30:23.555Z,5.75
2022-08-22T04:33:32.329Z,5.18
2022-08-22T04:36:50.795Z,4.75
2022-08-22T04:39:59.975Z,5.93
2022-08-22T04:43:15.566Z,5.65
2022-08-22T04:46:41.947Z,6.10
2022-08-22T04:49:51.978Z,5.25
2022-08-22T04:53:14.007Z,6.35
2022-08-22T04:56:16.043Z,5.30
2022-08-22T04:59:19.534Z,5.90
2022-08-22T05:02:27.821Z,5.35
2022-08-22T05:08:39.849Z,5.13
2022-08-22T05:11:43.223Z,6.43
2022-08-22T05:14:56.309Z,5.57
2022-08-22T05:18:06.644Z,5.93
2022-08-22T05:21:13.975Z,6.25
2022-08-22T05:24:46.566Z,6.68
2022-08-22T05:27:56.256Z,6.03
2022-08-22T05:31:00.171Z,6.75
2022-08-22T05:34:11.599Z,6.28
2022-08-22T05:37:44.861Z,6.75
2022-08-22T05:40:58.852Z,5.78
2022-08-22T05:44:02.731Z,6.25
2022-08-22T05:47:04.847Z,6.15
2022-08-22T05:50:18.526Z,6.65
2022-08-22T05:53:39.048Z,8.32
2022-08-22T05:56:51.605Z,5.57
2022-08-22T06:00:01.186Z,6.53
2022-08-22T06:03:16.470Z,6.35
2022-08-22T06:06:20.443Z,6.53
2022-08-22T06:09:37.162Z,6.28
2022-08-22T06:12:45.293Z,6.18
2022-08-22T06:15:59.719Z,5.97
2022-08-22T06:19:04.908Z,5.57
2022-08-22T06:22:28.625Z,5.85
2022-08-22T06:25:39.045Z,5.72
2022-08-22T06:28:54.677Z,6.50
2022-08-22T06:32:02.556Z,5.97
2022-08-22T06:35:11.610Z,5.88
2022-08-22T06:38:15.276Z,6.68
2022-08-22T06:41:22.306Z,8.32
2022-08-22T06:44:30.223Z,6.80
2022-08-22T06:47:37.335Z,7.18
2022-08-22T06:50:43.838Z,7.65
2022-08-22T06:53:50.426Z,7.05
2022-08-22T06:56:55.703Z,6.22
2022-08-22T07:00:03.269Z,5.85
2022-08-22T07:03:20.563Z,6.10
2022-08-22T07:06:29.993Z,6.47
2022-08-22T07:09:35.658Z,5.43
2022-08-22T07:12:39.254Z,6.70
2022-08-22T07:15:43.004Z,6.05
2022-08-22T07:18:56.879Z,6.95
2022-08-22T07:22:01.556Z,5.80
2022-08-22T07:25:20.923Z,5.65
2022-08-22T07:28:51.520Z,5.40
2022-08-22T07:32:17.242Z,6.93
2022-08-22T07:35:20.895Z,6.18
2022-08-22T07:38:31.674Z,7.38
2022-08-22T07:41:48.142Z,7.20
2022-08-22T07:45:17.886Z,6.25
2022-08-22T07:49:08.983Z,8.88
2022-08-22T07:52:13.930Z,6.18
2022-08-22T07:55:20.746Z,7.03
2022-08-22T07:58:27.476Z,9.75
2022-08-22T08:01:30.177Z,5.45
2022-08-22T08:04:40.081Z,6.45
2022-08-22T08:07:45.737Z,5.07
2022-08-22T08:10:50.938Z,5.32
2022-08-22T08:13:57.995Z,5.30
2022-08-22T08:17:30.144Z,5.70
2022-08-22T08:20:38.945Z,6.00
2022-08-22T08:23:46.341Z,5.60
2022-08-22T08:27:12.755Z,6.45
2022-08-22T08:30:19.615Z,4.53
2022-08-22T08:33:26.972Z,5.47
2022-08-22T08:36:32.111Z,6.13
2022-08-22T08:39:39.445Z,5.10
2022-08-22T08:43:30.887Z,5.95
2022-08-22T08:46:55.674Z,4.10
2022-08-22T08:50:16.287Z,3.95
2022-08-22T08:53:43.365Z,4.95
2022-08-22T08:57:00.162Z,4.80
2022-08-22T09:00:12.373Z,4.60
2022-08-22T09:03:30.536Z,4.80
2022-08-22T09:07:01.168Z,4.57
2022-08-22T09:10:33.270Z,4.75
2022-08-22T09:14:07.018Z,5.55
2022-08-22T09:17:23.694Z,4.88
2022-08-22T09:20:56.022Z,4.55
2022-08-22T09:24:23.242Z,4.70
2022-08-22T09:27:49.827Z,6.38
2022-08-22T09:31:23.067Z,5.00
2022-08-22T09:34:56.774Z,4.68
2022-08-22T09:38:19.906Z,4.05
2022-08-22T09:41:53.260Z,4.55
2022-08-22T09:45:11.990Z,4.85
2022-08-22T09:48:34.774Z,4.78
2022-08-22T09:52:14.569Z,6.05
2022-08-22T09:55:40.046Z,5.40
2022-08-22T09:59:03.172Z,3.55
2022-08-22T10:02:16.997Z,4.68
2022-08-22T10:05:40.457Z,4.57
2022-08-22T10:09:05.484Z,4.18
2022-08-22T10:12:19.728Z,3.83
2022-08-22T10:15:39.363Z,4.78
2022-08-22T10:18:52.872Z,4.63
2022-08-22T10:22:39.535Z,4.45
2022-08-22T10:25:48.363Z,5.20
2022-08-22T10:29:16.416Z,4.53
2022-08-22T10:32:31.096Z,4.22
2022-08-22T10:35:51.914Z,4.75
2022-08-22T10:38:58.116Z,3.22
2022-08-22T10:42:28.165Z,4.20
2022-08-22T10:45:37.737Z,3.95
2022-08-22T10:48:58.730Z,4.60
2022-08-22T10:52:15.272Z,3.90
2022-08-22T10:55:28.268Z,3.80
2022-08-22T10:58:35.212Z,3.42
2022-08-22T11:01:53.643Z,4.13
2022-08-22T11:05:10.721Z,4.03
2022-08-22T11:08:34.775Z,4.68
2022-08-22T11:11:39.748Z,2.88
2022-08-22T11:14:59.695Z,3.20
2022-08-22T11:18:24.630Z,3.15
2022-08-22T11:21:54.466Z,3.92
2022-08-22T11:25:15.344Z,4.13
2022-08-22T11:28:55.356Z,3.90
2022-08-22T11:32:07.938Z,3.05
2022-08-22T11:35:35.575Z,3.95
2022-08-22T11:39:06.537Z,3.13
2022-08-22T11:42:49.814Z,3.38
2022-08-22T11:45:57.255Z,2.47
2022-08-22T11:49:13.315Z,2.97
2022-08-22T11:52:17.923Z,2.67
2022-08-22T11:55:41.330Z,2.30
2022-08-22T11:58:56.363Z,3.08
2022-08-22T12:02:08.965Z,3.95
2022-08-22T12:05:26.146Z,3.50
2022-08-22T12:08:37.052Z,3.20
2022-08-22T12:12:16.980Z,3.13
2022-08-22T12:15:37.468Z,2.85
2022-08-22T12:18:53.001Z,3.90
2022-08-22T12:22:28.886Z,2.90
2022-08-22T12:25:59.321Z,3.33
2022-08-22T12:29:45.076Z,3.58
2022-08-22T12:33:31.751Z,3.50
2022-08-22T12:37:03.649Z,3.22
2022-08-22T12:40:36.407Z,3.55
2022-08-22T12:43:42.822Z,3.13
2022-08-22T12:47:03.224Z,4.00
2022-08-22T12:50:25.229Z,2.90
2022-08-22T12:53:49.199Z,3.20
2022-08-22T12:56:52.275Z,3.10
2022-08-22T13:00:17.354Z,3.45
2022-08-22T13:03:32.515Z,3.85
2022-08-22T13:06:37.863Z,2.88
2022-08-22T13:09:46.254Z,3.78
2022-08-22T13:12:58.522Z,2.42
2022-08-22T13:16:07.503Z,2.55
2022-08-22T13:19:46.618Z,2.88
2022-08-22T13:22:49.300Z,2.55
2022-08-22T13:26:33.172Z,3.33
2022-08-22T13:29:47.050Z,3.30
2022-08-22T13:32:53.221Z,2.28
2022-08-22T13:36:01.230Z,2.97
2022-08-22T13:39:13.540Z,2.70
2022-08-22T13:42:30.031Z,3.72
2022-08-22T13:45:36.263Z,2.70
2022-08-22T13:48:51.480Z,3.65
2022-08-22T13:52:14.432Z,2.42
2022-08-22T13:55:35.397Z,3.05
2022-08-22T13:58:39.025Z,2.60
2022-08-22T14:02:07.823Z,2.88
2022-08-22T14:05:33.203Z,2.60
2022-08-22T14:08:45.722Z,2.97
2022-08-22T14:11:56.278Z,3.08
2022-08-22T14:15:03.548Z,2.83
2022-08-22T14:18:16.002Z,2.77
2022-08-22T14:21:40.632Z,3.33
2022-08-22T14:24:55.758Z,3.50
2022-08-22T14:28:09.479Z,3.13
2022-08-22T14:31:14.430Z,4.20
2022-08-22T14:34:17.575Z,3.53
2022-08-22T14:37:25.144Z,2.90
2022-08-22T14:40:35.571Z,2.45
2022-08-22T14:43:49.621Z,2.90
2022-08-22T14:46:59.518Z,2.75
2022-08-22T14:50:11.182Z,2.85
2022-08-22T14:53:25.220Z,3.00
2022-08-22T14:56:30.136Z,2.67
2022-08-22T14:59:35.165Z,2.60
2022-08-22T15:02:38.376Z,2.60
2022-08-22T15:05:46.451Z,2.88
2022-08-22T15:08:50.725Z,3.40
2022-08-22T15:11:53.400Z,2.72
2022-08-22T15:15:06.206Z,4.18
2022-08-22T15:18:19.144Z,2.58
2022-08-22T15:21:33.453Z,4.22
2022-08-22T15:24:56.346Z,4.10
2022-08-22T15:28:06.931Z,3.10
2022-08-22T15:31:19.021Z,3.17
2022-08-22T15:34:30.298Z,4.00
2022-08-22T15:37:35.575Z,2.85
2022-08-22T15:40:45.942Z,3.08
2022-08-22T15:44:09.336Z,2.70
2022-08-22T15:47:39.902Z,3.13
2022-08-22T15:51:05.016Z,3.53
2022-08-22T15:54:25.277Z,3.55
2022-08-22T15:57:35.906Z,3.33
2022-08-22T16:00:43.283Z,2.85
2022-08-22T16:04:05.149Z,2.80
2022-08-22T16:07:26.188Z,3.35
2022-08-22T16:10:40.128Z,6.30
2022-08-22T16:13:44.537Z,4.03
2022-08-22T16:17:03.855Z,4.75
2022-08-22T16:20:15.883Z,4.63
2022-08-22T16:23:25.100Z,5.10
2022-08-22T16:26:30.217Z,5.22
2022-08-22T16:29:42.313Z,4.93
2022-08-22T16:32:53.214Z,5.05
2022-08-22T16:36:17.633Z,4.97
2022-08-22T16:39:22.432Z,4.47
2022-08-22T16:42:44.196Z,5.60
2022-08-22T16:45:48.698Z,4.53
2022-08-22T16:49:01.424Z,4.95
2022-08-22T16:52:24.955Z,6.70
2022-08-22T16:55:30.481Z,5.72
2022-08-22T16:59:19.776Z,4.60
2022-08-22T17:02:46.272Z,5.05
2022-08-22T17:05:57.013Z,4.40
2022-08-22T17:09:17.535Z,4.80
2022-08-22T17:12:40.791Z,5.13
2022-08-22T17:15:48.603Z,4.82
2022-08-22T17:19:02.658Z,4.85
2022-08-22T17:22:37.596Z,5.05
2022-08-22T17:26:13.431Z,4.43
2022-08-22T17:29:42.098Z,4.75
2022-08-22T17:33:06.385Z,4.43
2022-08-22T17:36:34.187Z,5.45
2022-08-22T17:40:11.583Z,4.63
2022-08-22T17:43:52.354Z,5.07
2022-08-22T17:47:08.630Z,5.13
2022-08-22T17:50:16.419Z,4.35
2022-08-22T17:53:46.620Z,3.97
2022-08-22T17:57:11.540Z,4.35
2022-08-22T18:00:26.129Z,4.72
2022-08-22T18:03:32.875Z,3.53
2022-08-22T18:06:44.348Z,4.53
2022-08-22T18:09:58.871Z,3.85
2022-08-22T18:13:14.798Z,3.40
2022-08-22T18:16:38.703Z,4.05
2022-08-22T18:19:50.055Z,4.07
2022-08-22T18:22:57.633Z,3.75
2022-08-22T18:26:07.380Z,3.88
2022-08-22T18:29:18.706Z,4.50
2022-08-22T18:32:41.602Z,4.38
2022-08-22T18:36:22.973Z,4.43
2022-08-22T18:39:50.076Z,2.85
2022-08-22T18:43:00.253Z,4.63
2022-08-22T18:46:24.559Z,4.25
2022-08-22T18:49:26.607Z,4.43
2022-08-22T18:52:28.624Z,5.00
2022-08-22T18:55:56.578Z,4.60
2022-08-22T18:59:29.574Z,4.18
2022-08-22T19:03:01.192Z,3.65
2022-08-22T19:06:15.336Z,3.88
2022-08-22T19:09:45.126Z,4.05
2022-08-22T19:13:07.055Z,3.00
2022-08-22T19:16:26.499Z,2.85
2022-08-22T19:20:08.663Z,2.75
2022-08-22T19:23:50.606Z,2.63
2022-08-22T19:27:11.116Z,2.15
2022-08-22T19:30:34.882Z,2.20
2022-08-22T19:33:40.840Z,2.22
2022-08-22T19:36:45.810Z,2.75
2022-08-22T19:39:58.494Z,2.05
2022-08-22T19:43:16.337Z,2.38
2022-08-22T19:46:36.846Z,2.23
2022-08-22T19:49:43.907Z,2.88
2022-08-22T19:52:58.054Z,1.85
2022-08-22T19:56:22.875Z,1.67
2022-08-22T19:59:51.338Z,2.45
2022-08-22T20:03:02.086Z,2.13
2022-08-22T20:06:22.073Z,3.35
2022-08-22T20:09:58.600Z,2.63
2022-08-22T20:13:02.132Z,2.55
2022-08-22T20:16:17.817Z,4.25
2022-08-22T20:19:21.597Z,2.72
2022-08-22T20:22:32.836Z,2.60
2022-08-22T20:25:44.462Z,3.05
2022-08-22T20:28:52.420Z,3.00
2022-08-22T20:31:58.582Z,3.88
2022-08-22T20:35:04.361Z,3.78
2022-08-22T20:38:14.331Z,3.33
2022-08-22T20:41:36.819Z,3.78
2022-08-22T20:44:53.484Z,3.13
2022-08-22T20:47:57.577Z,2.60
2022-08-22T20:51:05.103Z,3.55
2022-08-22T20:54:20.458Z,3.75
2022-08-22T20:57:23.012Z,2.92
2022-08-22T21:00:31.845Z,2.38
2022-08-22T21:03:42.631Z,3.85
2022-08-22T21:06:45.488Z,2.85
2022-08-22T21:10:22.804Z,3.10
2022-08-22T21:13:25.142Z,2.50
2022-08-22T21:16:31.549Z,2.75
2022-08-22T21:19:33.927Z,3.38
2022-08-22T21:22:35.970Z,3.15
2022-08-22T21:26:06.159Z,3.40
2022-08-22T21:29:14.691Z,2.83
2022-08-22T21:35:33.428Z,3.92
2022-08-22T21:38:35.760Z,3.25
2022-08-22T21:41:42.358Z,3.85
2022-08-22T21:44:59.145Z,7.28
2022-08-22T21:48:02.031Z,7.80
2022-08-22T21:51:29.539Z,6.43
2022-08-22T21:54:32.130Z,7.68
2022-08-22T21:57:36.094Z,7.05
2022-08-22T22:00:59.506Z,7.07
2022-08-22T22:04:01.786Z,11.85
2022-08-22T22:07:04.709Z,12.45
2022-08-22T22:10:16.602Z,14.05
2022-08-22T22:13:20.480Z,14.10
2022-08-22T22:16:28.302Z,13.82
2022-08-22T22:19:30.442Z,12.27
2022-08-22T22:22:32.696Z,14.35
2022-08-22T22:25:42.160Z,12.57
2022-08-22T22:28:50.477Z,10.23
2022-08-22T22:31:52.698Z,8.18
2022-08-22T22:34:55.385Z,9.00
2022-08-22T22:37:57.709Z,8.13
2022-08-22T22:41:00.144Z,9.15
2022-08-22T22:44:03.796Z,7.65
2022-08-22T22:47:06.435Z,12.85
2022-08-22T22:50:09.121Z,13.68
2022-08-22T22:53:12.767Z,11.48
2022-08-22T22:56:23.530Z,11.15
2022-08-22T22:59:26.461Z,12.10
2022-08-22T23:02:28.726Z,12.27
2022-08-22T23:05:31.913Z,11.02
2022-08-22T23:08:34.679Z,11.68
2022-08-22T23:11:36.976Z,11.98
2022-08-22T23:14:39.032Z,9.75
2022-08-22T23:17:42.476Z,12.43
2022-08-22T23:20:44.591Z,11.43
2022-08-22T23:23:46.971Z,9.65
2022-08-22T23:26:49.109Z,11.38
2022-08-22T23:29:51.375Z,11.98
2022-08-22T23:32:53.829Z,14.73
2022-08-22T23:35:59.899Z,13.65
2022-08-22T23:39:06.443Z,13.05
2022-08-22T23:42:10.156Z,13.48
2022-08-22T23:45:12.536Z,11.77
2022-08-22T23:48:14.601Z,11.98
2022-08-22T23:51:23.075Z,10.32
2022-08-22T23:54:26.387Z,12.18
2022-08-22T23:57:29.394Z,11.15
